Aviation Digital Data Service (ADDS)

Output produced by METARs form (0230 UTC 21 November 2017)
found at http://www.aviationweather.gov/adds/metars/
 
METAR text: KHAE 210215Z AUTO 20012G17KT 10SM CLR 11/M03 A2979 RMK AO2
Conditions at: KHAE (HANNIBAL , MO, US) observed 0215 UTC 21 November 2017
Temperature: 11.0°C (52°F)
Dewpoint: -3.0°C (27°F) [RH = 37%]
Pressure (altimeter): 29.79 inches Hg (1008.9 mb)
Winds: from the SSW (200 degrees) at 14 MPH (12 knots; 6.2 m/s)
gusting to 20 MPH (17 knots; 8.8 m/s)
Visibility: 10 or more miles (16+ km)
Ceiling: at least 12,000 feet AGL
Clouds: sky clear below 12,000 feet AGL
Weather: automated observation with no human augmentation;
there may or may not be significant weather present at this time